Time;durP1;ratioP1;P1;durP2;ratioP2;P2;SDS_P1;SDS_P2;PMS_P1;PMS_P2;Temp;Humidity;BMP_temperature;BMP_pressure;BME280_temperature;BME280_humidity;BME280_pressure;Samples;Min_cycle;Max_cycle;Signal;HPM_P1;HPM_P2
2023/11/15 00:01:51;;;;;;;2.78;0.30;;;12.50;99.90;;;;;;5036628;28;20032;-90
2023/11/15 00:04:19;;;;;;;2.92;0.40;;;12.50;99.90;;;;;;5037101;28;20021;-90
2023/11/15 00:06:45;;;;;;;5.03;0.55;;;12.50;99.90;;;;;;5036780;28;20028;-90
2023/11/15 00:09:11;;;;;;;4.30;0.52;;;12.50;99.90;;;;;;5036381;28;20120;-90
2023/11/15 00:11:36;;;;;;;2.80;0.30;;;12.50;99.90;;;;;;5036662;28;20505;-90
2023/11/15 00:14:02;;;;;;;2.92;0.30;;;12.50;99.90;;;;;;5036295;28;20069;-90
2023/11/15 00:16:28;;;;;;;3.17;0.43;;;12.50;99.90;;;;;;5036846;28;20056;-91
2023/11/15 00:18:54;;;;;;;2.97;0.20;;;12.50;99.90;;;;;;5036530;28;20035;-91
2023/11/15 00:21:20;;;;;;;2.95;0.32;;;12.50;99.90;;;;;;5036521;28;20108;-91
2023/11/15 00:23:45;;;;;;;3.15;0.40;;;12.50;99.90;;;;;;5051118;28;20032;-91
2023/11/15 00:26:11;;;;;;;3.63;0.95;;;12.40;99.90;;;;;;5056272;28;20033;-92
2023/11/15 00:28:39;;;;;;;2.47;0.20;;;12.40;99.90;;;;;;5056414;28;20127;-91
2023/11/15 00:31:05;;;;;;;0.60;0.25;;;12.50;99.90;;;;;;5055901;28;20025;-91
2023/11/15 00:33:30;;;;;;;0.57;0.20;;;12.50;99.90;;;;;;5056041;28;20052;-92
2023/11/15 00:35:56;;;;;;;3.22;0.30;;;12.40;99.90;;;;;;5055829;28;20032;-91
2023/11/15 00:38:22;;;;;;;2.05;0.32;;;12.50;99.90;;;;;;5056244;28;20101;-89
2023/11/15 00:40:48;;;;;;;1.08;0.20;;;12.50;99.90;;;;;;5056082;28;20024;-90
2023/11/15 00:43:17;;;;;;;2.65;0.30;;;12.50;99.90;;;;;;5055952;28;20162;-89
2023/11/15 00:45:43;;;;;;;1.23;0.20;;;12.50;99.90;;;;;;5056186;28;20032;-89
2023/11/15 00:48:09;;;;;;;3.20;0.43;;;12.50;99.90;;;;;;5055498;28;20035;-90
2023/11/15 00:50:34;;;;;;;1.63;0.30;;;12.50;99.90;;;;;;5056506;28;20025;-90
2023/11/15 00:53:02;;;;;;;2.25;0.32;;;12.50;99.90;;;;;;5055898;28;20021;-89
2023/11/15 00:55:28;;;;;;;2.35;0.52;;;12.50;99.90;;;;;;5073712;28;20493;-90
2023/11/15 00:57:53;;;;;;;4.63;0.30;;;12.50;99.90;;;;;;5059367;28;20024;-89
2023/11/15 01:00:26;;;;;;;7.07;0.50;;;12.50;99.90;;;;;;5060199;28;20370;-89
2023/11/15 01:02:57;;;;;;;2.03;0.43;;;12.40;99.90;;;;;;5078156;28;20028;-89
2023/11/15 01:05:23;;;;;;;1.73;0.47;;;12.40;99.90;;;;;;5060732;28;20025;-89
2023/11/15 01:07:49;;;;;;;0.57;0.28;;;12.40;99.90;;;;;;5060498;28;20469;-90
2023/11/15 01:10:15;;;;;;;0.80;0.20;;;12.40;99.90;;;;;;5077540;28;20082;-90
2023/11/15 01:12:41;;;;;;;1.00;0.45;;;12.40;99.90;;;;;;5060719;28;20024;-91
2023/11/15 01:15:08;;;;;;;3.70;0.60;;;12.40;99.90;;;;;;5059467;28;20052;-91
2023/11/15 01:17:34;;;;;;;3.03;0.47;;;12.40;99.90;;;;;;5061504;28;20047;-90
2023/11/15 01:20:00;;;;;;;1.33;0.30;;;12.40;99.90;;;;;;5059734;28;20032;-90
2023/11/15 01:22:26;;;;;;;2.40;0.40;;;12.40;99.90;;;;;;5059879;28;20020;-88
2023/11/15 01:24:52;;;;;;;3.20;0.43;;;12.40;99.90;;;;;;5060285;28;20119;-87
2023/11/15 01:27:17;;;;;;;2.88;0.38;;;12.40;99.90;;;;;;5063137;28;20040;-89
2023/11/15 01:29:43;;;;;;;2.38;0.38;;;12.40;99.90;;;;;;5081865;28;20029;-89
2023/11/15 01:32:09;;;;;;;6.68;0.40;;;12.40;99.90;;;;;;5063778;28;20027;-89
2023/11/15 01:34:34;;;;;;;2.72;0.60;;;12.40;99.90;;;;;;5063950;28;20503;-88
2023/11/15 01:37:00;;;;;;;2.92;0.30;;;12.40;99.90;;;;;;5061644;28;20020;-89
2023/11/15 01:39:25;;;;;;;2.97;0.50;;;12.30;99.90;;;;;;5060041;28;20115;-89
2023/11/15 01:41:51;;;;;;;2.58;0.20;;;12.30;99.90;;;;;;5060950;28;20478;-89
2023/11/15 01:44:18;;;;;;;2.53;0.50;;;12.30;99.90;;;;;;5077440;28;20024;-89
2023/11/15 01:46:47;;;;;;;2.58;0.63;;;12.30;99.90;;;;;;5059903;28;20036;-89
2023/11/15 01:49:14;;;;;;;2.47;0.40;;;12.30;99.90;;;;;;5058692;28;20059;-90
2023/11/15 01:51:40;;;;;;;2.65;0.52;;;12.20;99.90;;;;;;5077056;28;20370;-89
2023/11/15 01:54:06;;;;;;;6.50;0.60;;;12.20;99.90;;;;;;5058703;28;20029;-89
2023/11/15 01:56:32;;;;;;;4.22;0.90;;;12.20;99.90;;;;;;5076790;28;20059;-89
2023/11/15 01:58:58;;;;;;;4.68;0.82;;;12.20;99.90;;;;;;5076487;28;20036;-88
2023/11/15 02:01:24;;;;;;;2.80;0.70;;;12.20;99.90;;;;;;5059014;28;20070;-89
2023/11/15 02:03:50;;;;;;;4.97;1.08;;;12.10;99.90;;;;;;5059152;28;20028;-90
2023/11/15 02:06:16;;;;;;;2.28;0.40;;;12.10;99.90;;;;;;5058829;28;20028;-90
2023/11/15 02:08:42;;;;;;;3.28;0.50;;;12.20;99.90;;;;;;5058296;28;20131;-90
2023/11/15 02:11:08;;;;;;;2.20;0.30;;;12.20;99.90;;;;;;5059013;28;20476;-90
2023/11/15 02:13:34;;;;;;;3.17;0.60;;;12.20;99.90;;;;;;5059061;28;20028;-90
2023/11/15 02:15:59;;;;;;;5.75;0.75;;;12.20;99.90;;;;;;5058761;28;20492;-90
2023/11/15 02:18:25;;;;;;;4.38;0.70;;;12.10;99.90;;;;;;5058887;28;20037;-90
2023/11/15 02:20:51;;;;;;;5.30;0.93;;;12.20;99.90;;;;;;5058875;28;20029;-90
2023/11/15 02:23:21;;;;;;;3.20;0.55;;;12.10;99.90;;;;;;5058228;28;20465;-90
2023/11/15 02:25:50;;;;;;;2.00;0.35;;;12.10;99.90;;;;;;5076016;28;20020;-90
2023/11/15 02:28:17;;;;;;;4.90;0.70;;;12.10;99.90;;;;;;5058239;28;20527;-89
2023/11/15 02:30:42;;;;;;;2.33;0.50;;;12.10;99.90;;;;;;5058777;28;20029;-90
2023/11/15 02:33:08;;;;;;;3.25;0.50;;;12.10;99.90;;;;;;5057586;28;20458;-90
2023/11/15 02:35:33;;;;;;;5.47;0.40;;;12.10;99.90;;;;;;5058825;28;20032;-89
2023/11/15 02:37:59;;;;;;;3.40;0.57;;;12.10;99.90;;;;;;5058287;28;20029;-89
2023/11/15 02:40:24;;;;;;;5.75;0.50;;;12.10;99.90;;;;;;5076075;28;20021;-90
2023/11/15 02:42:50;;;;;;;3.65;0.55;;;12.10;99.90;;;;;;5058527;28;20032;-90
2023/11/15 02:45:16;;;;;;;4.30;0.60;;;12.10;99.90;;;;;;5058062;28;20028;-90
2023/11/15 02:47:42;;;;;;;2.40;0.60;;;12.10;99.90;;;;;;5076134;28;20032;-89
2023/11/15 02:50:08;;;;;;;4.05;0.40;;;12.10;99.90;;;;;;5057637;28;20052;-90
2023/11/15 02:52:35;;;;;;;3.30;0.82;;;12.10;99.90;;;;;;5058250;28;20063;-90
2023/11/15 02:55:02;;;;;;;2.10;0.50;;;12.10;99.90;;;;;;5058225;28;20039;-90
2023/11/15 02:57:28;;;;;;;6.03;0.60;;;12.00;99.90;;;;;;5058374;28;20032;-90
2023/11/15 02:59:53;;;;;;;3.25;0.45;;;12.10;99.90;;;;;;5076243;28;20032;-90
2023/11/15 03:02:19;;;;;;;1.98;0.57;;;12.00;99.90;;;;;;5075380;28;20035;-90
2023/11/15 03:04:45;;;;;;;3.55;0.50;;;12.00;99.90;;;;;;5058501;28;20051;-90
2023/11/15 03:07:12;;;;;;;1.55;0.60;;;12.00;99.90;;;;;;5057552;28;20029;-89
2023/11/15 03:09:38;;;;;;;4.07;0.90;;;12.00;99.90;;;;;;5058075;28;20116;-89
2023/11/15 03:12:04;;;;;;;5.22;0.70;;;12.00;99.90;;;;;;5057456;28;20056;-89
2023/11/15 03:14:30;;;;;;;3.08;0.40;;;12.00;99.90;;;;;;5057974;28;20055;-90
2023/11/15 03:17:05;;;;;;;2.80;0.40;;;12.00;99.90;;;;;;5058213;28;20032;-89
2023/11/15 03:19:31;;;;;;;3.45;0.50;;;12.00;99.90;;;;;;5057076;28;20064;-90
2023/11/15 03:21:56;;;;;;;4.03;0.70;;;12.00;99.90;;;;;;5057239;28;20078;-90
2023/11/15 03:24:22;;;;;;;2.70;0.45;;;12.00;99.90;;;;;;5075093;28;20032;-90
2023/11/15 03:26:47;;;;;;;2.90;0.70;;;12.00;99.90;;;;;;5057238;28;20430;-89
2023/11/15 03:29:13;;;;;;;2.90;0.63;;;12.00;99.90;;;;;;5057251;28;20047;-89
2023/11/15 03:31:39;;;;;;;3.08;1.02;;;11.90;99.90;;;;;;5057328;28;20050;-89
2023/11/15 03:34:05;;;;;;;4.10;1.00;;;11.90;99.90;;;;;;5074602;28;20462;-90
2023/11/15 03:36:32;;;;;;;2.40;0.50;;;11.90;99.90;;;;;;5057528;28;20082;-90
2023/11/15 03:38:58;;;;;;;5.30;0.82;;;11.90;99.90;;;;;;5057507;28;20028;-89
2023/11/15 03:41:24;;;;;;;4.38;0.93;;;11.90;99.90;;;;;;5057061;28;20029;-89
2023/11/15 03:43:51;;;;;;;6.35;0.93;;;11.90;99.90;;;;;;5057366;28;20490;-89
2023/11/15 03:46:17;;;;;;;4.10;0.70;;;11.90;99.90;;;;;;5056973;28;20029;-90
2023/11/15 03:48:43;;;;;;;4.50;0.65;;;11.90;99.90;;;;;;5074906;28;20032;-89
2023/11/15 03:51:08;;;;;;;4.38;0.60;;;11.80;99.90;;;;;;5056828;28;20028;-89
2023/11/15 03:53:34;;;;;;;2.13;0.57;;;11.90;99.90;;;;;;5057040;28;20067;-89
2023/11/15 03:55:59;;;;;;;8.80;0.70;;;11.90;99.90;;;;;;5056823;28;20083;-89
2023/11/15 03:58:25;;;;;;;4.40;0.50;;;11.90;99.90;;;;;;5074245;28;20508;-89
2023/11/15 04:00:51;;;;;;;6.88;0.80;;;11.80;99.90;;;;;;5057020;28;20088;-88
2023/11/15 04:03:17;;;;;;;4.00;0.60;;;11.80;99.90;;;;;;5056998;28;20088;-88
2023/11/15 04:05:43;;;;;;;5.28;0.45;;;11.80;99.90;;;;;;5057168;28;20487;-88
2023/11/15 04:08:09;;;;;;;3.45;0.45;;;11.80;99.90;;;;;;5074168;28;20033;-88
2023/11/15 04:10:35;;;;;;;2.83;0.70;;;11.90;99.90;;;;;;5074753;28;20500;-88
2023/11/15 04:13:03;;;;;;;5.35;0.80;;;11.90;99.90;;;;;;5056783;28;20024;-89
2023/11/15 04:15:29;;;;;;;4.78;0.60;;;11.80;99.90;;;;;;5056100;28;20024;-89
2023/11/15 04:17:56;;;;;;;6.25;0.63;;;11.80;99.90;;;;;;5056840;28;20385;-89
2023/11/15 04:20:22;;;;;;;5.53;0.82;;;11.80;99.90;;;;;;5073734;28;20048;-89
2023/11/15 04:22:47;;;;;;;3.45;0.77;;;11.80;99.90;;;;;;5056583;28;20115;-89
2023/11/15 04:25:13;;;;;;;4.50;0.60;;;11.80;99.90;;;;;;5056305;28;20483;-89
2023/11/15 04:27:40;;;;;;;3.58;0.70;;;11.70;99.90;;;;;;5056914;28;20039;-88
2023/11/15 04:30:06;;;;;;;4.05;0.63;;;11.70;99.90;;;;;;5056674;28;20020;-87
2023/11/15 04:32:31;;;;;;;5.38;0.60;;;11.70;99.90;;;;;;5055693;28;20473;-89
2023/11/15 04:34:57;;;;;;;4.60;0.82;;;11.70;99.90;;;;;;5056455;28;20120;-89
2023/11/15 04:37:24;;;;;;;4.60;0.60;;;11.70;99.90;;;;;;5056559;28;20476;-89
2023/11/15 04:39:49;;;;;;;3.55;0.52;;;11.60;99.90;;;;;;5056487;28;20025;-88
2023/11/15 04:42:18;;;;;;;9.60;0.70;;;11.60;99.90;;;;;;5055872;28;20056;-89
2023/11/15 04:44:45;;;;;;;5.28;0.80;;;11.60;99.90;;;;;;5074078;28;20037;-89
2023/11/15 04:47:11;;;;;;;5.78;1.05;;;11.50;99.90;;;;;;5055721;28;20393;-88
2023/11/15 04:49:37;;;;;;;5.55;0.80;;;11.50;99.90;;;;;;5056430;28;20020;-89
2023/11/15 04:52:02;;;;;;;4.43;0.80;;;11.50;99.90;;;;;;5056136;28;20082;-90
2023/11/15 04:54:28;;;;;;;4.10;0.70;;;11.50;99.90;;;;;;5073499;28;20037;-90
2023/11/15 04:56:54;;;;;;;3.55;0.70;;;11.50;99.90;;;;;;5056470;28;20484;-88
2023/11/15 04:59:20;;;;;;;2.92;0.80;;;11.50;99.90;;;;;;5055911;28;20033;-89
2023/11/15 05:01:45;;;;;;;5.07;0.85;;;11.40;99.90;;;;;;5056744;28;20491;-89
2023/11/15 05:04:14;;;;;;;3.55;0.80;;;11.30;99.90;;;;;;5055909;28;20496;-89
2023/11/15 05:06:41;;;;;;;6.68;1.10;;;11.40;99.90;;;;;;5056577;28;20025;-89
2023/11/15 05:09:08;;;;;;;2.03;0.60;;;11.30;99.90;;;;;;5056080;28;20458;-89
2023/11/15 05:11:34;;;;;;;4.55;0.82;;;11.30;99.90;;;;;;5056444;28;20032;-89
2023/11/15 05:14:00;;;;;;;5.28;0.80;;;11.30;99.90;;;;;;5074163;28;20028;-89
2023/11/15 05:16:26;;;;;;;3.75;0.75;;;11.30;99.90;;;;;;5056185;28;20033;-89
2023/11/15 05:18:51;;;;;;;2.22;0.57;;;11.30;99.90;;;;;;5056152;28;20028;-89
2023/11/15 05:21:17;;;;;;;4.30;1.05;;;11.30;99.90;;;;;;5055817;28;20480;-89
2023/11/15 05:23:42;;;;;;;6.53;1.10;;;11.30;99.90;;;;;;5073752;28;20082;-88
2023/11/15 05:26:09;;;;;;;3.22;0.80;;;11.30;99.90;;;;;;5074068;28;20103;-89
2023/11/15 05:28:34;;;;;;;6.43;1.23;;;11.30;99.90;;;;;;5073742;28;20041;-89
2023/11/15 05:31:00;;;;;;;4.32;1.00;;;11.30;99.90;;;;;;5056126;28;20028;-89
2023/11/15 05:33:26;;;;;;;4.03;0.95;;;11.30;99.90;;;;;;5051942;28;20049;-89
2023/11/15 05:35:51;;;;;;;5.28;1.05;;;11.30;99.90;;;;;;5052817;28;20026;-89
2023/11/15 05:38:18;;;;;;;3.38;0.65;;;11.30;99.90;;;;;;5052405;28;20059;-90
2023/11/15 05:40:44;;;;;;;6.40;1.38;;;11.30;99.90;;;;;;5052668;28;20075;-91
2023/11/15 05:43:10;;;;;;;4.90;1.05;;;11.30;99.90;;;;;;5053934;28;20467;-90
2023/11/15 05:45:36;;;;;;;8.23;1.13;;;11.30;99.90;;;;;;5056667;28;20025;-92
2023/11/15 05:48:02;;;;;;;3.25;0.50;;;11.20;99.90;;;;;;5056342;28;20128;-91
2023/11/15 05:50:28;;;;;;;5.72;0.98;;;11.20;99.90;;;;;;5056129;28;20033;-91
2023/11/15 05:52:55;;;;;;;3.00;0.57;;;11.20;99.90;;;;;;5057375;28;20461;-91
2023/11/15 05:55:20;;;;;;;2.50;0.57;;;11.20;99.90;;;;;;5056350;28;20060;-90
2023/11/15 05:57:48;;;;;;;3.30;0.73;;;11.20;99.90;;;;;;5056236;28;20029;-91
2023/11/15 06:00:18;;;;;;;3.55;0.57;;;11.10;99.90;;;;;;5056926;28;20030;-90
2023/11/15 06:02:46;;;;;;;5.43;0.70;;;11.10;99.90;;;;;;5056913;28;20029;-90
2023/11/15 06:05:12;;;;;;;3.08;0.60;;;11.10;99.90;;;;;;5055494;28;20064;-89
2023/11/15 06:07:37;;;;;;;5.03;1.02;;;11.10;99.90;;;;;;5056798;28;20071;-90
2023/11/15 06:10:03;;;;;;;5.97;1.08;;;11.00;99.90;;;;;;5057061;28;20527;-90
2023/11/15 06:12:29;;;;;;;3.28;1.00;;;11.00;99.90;;;;;;5056537;28;20052;-90
2023/11/15 06:14:54;;;;;;;6.53;0.90;;;11.00;99.90;;;;;;5056142;28;20029;-87
2023/11/15 06:17:20;;;;;;;3.50;0.80;;;11.00;99.90;;;;;;5050958;28;20049;-86
2023/11/15 06:19:45;;;;;;;6.03;0.88;;;11.00;99.90;;;;;;5036044;28;20021;-89
2023/11/15 06:22:11;;;;;;;3.97;0.73;;;11.00;99.90;;;;;;5041160;28;20053;-89
2023/11/15 06:24:40;;;;;;;5.00;0.90;;;11.00;99.90;;;;;;5044129;28;20057;-89
2023/11/15 06:27:07;;;;;;;3.28;0.98;;;11.10;99.90;;;;;;5035504;28;20041;-90
2023/11/15 06:29:33;;;;;;;8.63;1.35;;;11.10;99.90;;;;;;5035139;28;20038;-90
2023/11/15 06:31:59;;;;;;;4.90;0.77;;;11.10;99.90;;;;;;5036375;28;20032;-89
2023/11/15 06:34:25;;;;;;;3.55;0.73;;;11.10;99.90;;;;;;5035600;28;20482;-89
2023/11/15 06:36:53;;;;;;;5.13;0.93;;;11.10;99.90;;;;;;5044731;28;20546;-89
2023/11/15 06:39:21;;;;;;;4.28;0.70;;;11.10;99.90;;;;;;5051613;28;20140;-89
2023/11/15 06:41:46;;;;;;;6.25;0.88;;;11.10;99.90;;;;;;5036413;28;20049;-87
2023/11/15 06:44:13;;;;;;;6.78;1.02;;;11.10;99.90;;;;;;5051712;28;20037;-87
2023/11/15 06:46:38;;;;;;;5.78;0.90;;;11.10;99.90;;;;;;5036364;28;20443;-87
2023/11/15 06:49:10;;;;;;;2.40;0.68;;;11.10;99.90;;;;;;5052126;28;20044;-88
2023/11/15 06:51:39;;;;;;;;;;;11.10;99.90;;;;;;5036209;28;20022;-88
2023/11/15 06:54:06;;;;;;;2.85;0.70;;;11.10;99.90;;;;;;5055602;28;19995;-86
2023/11/15 06:56:32;;;;;;;6.35;1.05;;;11.20;99.90;;;;;;5056279;28;20025;-88
2023/11/15 06:58:58;;;;;;;5.88;1.08;;;11.20;99.90;;;;;;5044140;28;20504;-86
2023/11/15 07:01:23;;;;;;;6.53;1.30;;;11.20;99.90;;;;;;5047836;28;20033;-86
2023/11/15 07:03:49;;;;;;;4.80;0.93;;;11.20;99.90;;;;;;5046287;28;20025;-87
2023/11/15 07:06:15;;;;;;;6.50;1.52;;;11.20;99.90;;;;;;5054157;28;20029;-86
2023/11/15 07:08:41;;;;;;;4.30;0.65;;;11.20;99.90;;;;;;5054165;28;20033;-86
2023/11/15 07:11:08;;;;;;;4.50;0.90;;;11.30;99.90;;;;;;5045847;28;20390;-85
2023/11/15 07:13:34;;;;;;;4.05;0.75;;;11.30;99.90;;;;;;5037403;28;20037;-87
2023/11/15 07:16:02;;;;;;;4.97;0.95;;;11.30;99.90;;;;;;5054267;28;20036;-85
2023/11/15 07:18:29;;;;;;;4.43;0.90;;;11.30;99.90;;;;;;5053583;28;20085;-84
2023/11/15 07:20:54;;;;;;;4.55;0.90;;;11.30;99.90;;;;;;5053980;28;20416;-86
2023/11/15 07:23:20;;;;;;;7.50;1.30;;;11.30;99.90;;;;;;5053379;28;20025;-88
2023/11/15 07:25:46;;;;;;;6.72;1.13;;;11.30;99.90;;;;;;5055075;28;20029;-88
2023/11/15 07:28:12;;;;;;;5.57;0.90;;;11.30;99.90;;;;;;5054082;28;20162;-88
2023/11/15 07:30:38;;;;;;;8.63;0.95;;;11.30;99.90;;;;;;5033587;28;20079;-85
2023/11/15 07:33:04;;;;;;;4.47;0.80;;;11.30;99.90;;;;;;5033944;28;20053;-86
2023/11/15 07:35:30;;;;;;;6.05;1.10;;;11.40;99.90;;;;;;5033526;28;20037;-87
2023/11/15 07:37:56;;;;;;;7.93;1.00;;;11.40;99.90;;;;;;5044815;28;20109;-88
2023/11/15 07:40:22;;;;;;;5.05;1.08;;;11.40;99.90;;;;;;5052899;28;20382;-85
2023/11/15 07:42:49;;;;;;;7.97;1.08;;;11.40;99.90;;;;;;5036038;28;20029;-86
2023/11/15 07:45:17;;;;;;;5.65;1.10;;;11.40;99.90;;;;;;5049545;28;20040;-85
2023/11/15 07:47:43;;;;;;;6.45;1.20;;;11.40;99.90;;;;;;5053308;28;20127;-85
2023/11/15 07:50:10;;;;;;;9.38;1.10;;;11.40;99.90;;;;;;5046446;28;20112;-86
2023/11/15 07:52:37;;;;;;;5.30;1.35;;;11.40;99.90;;;;;;5044851;28;20040;-85
2023/11/15 07:55:03;;;;;;;10.02;1.15;;;11.40;99.90;;;;;;5051992;28;20059;-89
2023/11/15 07:57:29;;;;;;;5.03;0.75;;;11.40;99.90;;;;;;5037421;28;20022;-88
2023/11/15 07:59:56;;;;;;;6.88;1.02;;;11.40;99.90;;;;;;5029502;28;20140;-89
2023/11/15 08:02:22;;;;;;;6.68;1.00;;;11.40;99.90;;;;;;5052412;28;20052;-88
2023/11/15 08:04:49;;;;;;;10.75;1.13;;;11.50;99.90;;;;;;5042075;28;20071;-88
2023/11/15 08:07:16;;;;;;;6.03;1.33;;;11.50;99.90;;;;;;5033851;28;20025;-88
2023/11/15 08:09:41;;;;;;;9.07;0.90;;;11.50;99.90;;;;;;5033139;28;20091;-87
2023/11/15 08:12:07;;;;;;;6.97;0.90;;;11.50;99.90;;;;;;5034510;28;20021;-87
2023/11/15 08:14:33;;;;;;;7.10;1.30;;;11.60;99.90;;;;;;5033169;28;20437;-87
2023/11/15 08:17:00;;;;;;;2.53;0.90;;;11.60;99.90;;;;;;5035114;28;20030;-89
2023/11/15 08:19:25;;;;;;;12.35;0.98;;;11.60;99.90;;;;;;5040038;28;20041;-88
2023/11/15 08:21:56;;;;;;;7.32;0.80;;;11.60;99.90;;;;;;5044919;28;20029;-89
2023/11/15 08:24:22;;;;;;;9.10;1.23;;;11.60;99.90;;;;;;5041216;28;20033;-87
2023/11/15 08:26:53;;;;;;;4.38;0.88;;;11.50;99.90;;;;;;5050596;28;20025;-88
2023/11/15 08:29:19;;;;;;;3.08;1.10;;;11.60;99.90;;;;;;5052984;28;20060;-88
2023/11/15 08:31:45;;;;;;;3.67;0.88;;;11.70;99.90;;;;;;5051944;28;20076;-90
2023/11/15 08:34:11;;;;;;;3.63;0.70;;;11.70;99.90;;;;;;5058264;28;20511;-88
2023/11/15 08:36:38;;;;;;;6.47;1.00;;;11.60;99.90;;;;;;5052947;28;20040;-88
2023/11/15 08:39:10;;;;;;;6.28;1.10;;;11.60;99.90;;;;;;5052782;28;20029;-87
2023/11/15 08:41:35;;;;;;;;;;;11.70;99.90;;;;;;5055110;28;20032;-86
2023/11/15 08:44:01;;;;;;;8.35;0.80;;;11.60;99.90;;;;;;5053009;28;19999;-87
2023/11/15 08:46:28;;;;;;;6.90;1.75;;;11.60;99.90;;;;;;5052578;28;20029;-87
2023/11/15 08:48:54;;;;;;;5.57;1.13;;;11.70;99.90;;;;;;5052605;28;20035;-86
2023/11/15 08:51:23;;;;;;;7.85;1.10;;;11.70;99.90;;;;;;5036472;28;20424;-87
2023/11/15 08:53:49;;;;;;;3.85;0.88;;;11.70;99.90;;;;;;5045583;28;20028;-88
2023/11/15 08:56:14;;;;;;;4.40;1.05;;;11.70;99.90;;;;;;5052642;28;20436;-88
2023/11/15 08:58:40;;;;;;;6.00;1.10;;;11.70;99.90;;;;;;5052517;28;20063;-87
2023/11/15 09:01:09;;;;;;;5.85;0.80;;;11.80;99.90;;;;;;5035205;28;20057;-87
2023/11/15 09:03:34;;;;;;;6.38;0.98;;;11.80;99.90;;;;;;5032312;28;20029;-88
2023/11/15 09:06:00;;;;;;;4.53;0.65;;;11.70;99.90;;;;;;5050101;28;20029;-89
2023/11/15 09:08:26;;;;;;;5.47;0.80;;;11.70;99.90;;;;;;5053057;28;20373;-88
2023/11/15 09:10:51;;;;;;;5.80;0.70;;;11.80;99.90;;;;;;5052728;28;20025;-89
2023/11/15 09:13:22;;;;;;;8.75;1.00;;;11.80;99.90;;;;;;5052718;28;20029;-87
2023/11/15 09:15:50;;;;;;;6.95;0.90;;;11.80;99.90;;;;;;5045517;28;20083;-86
2023/11/15 09:18:19;;;;;;;3.25;0.70;;;11.80;99.90;;;;;;5037852;28;20033;-88
2023/11/15 09:20:49;;;;;;;4.28;0.70;;;11.80;99.90;;;;;;5045574;28;20025;-89
2023/11/15 09:23:16;;;;;;;4.78;0.98;;;11.80;99.90;;;;;;5043289;28;20500;-89
2023/11/15 09:25:42;;;;;;;4.63;1.05;;;11.90;99.90;;;;;;5050879;28;20021;-87
2023/11/15 09:28:10;;;;;;;5.03;1.02;;;11.90;99.90;;;;;;5047926;28;20029;-88
2023/11/15 09:30:39;;;;;;;4.43;0.80;;;12.00;99.90;;;;;;5044747;28;20049;-88
2023/11/15 09:33:05;;;;;;;5.53;1.48;;;12.00;99.90;;;;;;5037513;28;20088;-87
2023/11/15 09:35:34;;;;;;;3.10;0.80;;;12.00;99.90;;;;;;5045029;28;20065;-87
2023/11/15 09:38:00;;;;;;;5.85;1.40;;;12.00;99.90;;;;;;5048235;28;20026;-88
2023/11/15 09:40:26;;;;;;;5.07;0.88;;;12.00;99.90;;;;;;5042878;28;20025;-87
2023/11/15 09:42:54;;;;;;;4.38;1.00;;;12.00;99.90;;;;;;5043951;28;20455;-87
2023/11/15 09:45:23;;;;;;;3.83;0.90;;;12.10;99.90;;;;;;5045354;28;20066;-86
2023/11/15 09:47:51;;;;;;;4.30;0.80;;;12.10;99.90;;;;;;5045821;28;20021;-88
2023/11/15 09:50:31;;;;;;;5.13;0.70;;;12.10;99.90;;;;;;5046604;28;20155;-86
2023/11/15 09:53:03;;;;;;;4.78;0.77;;;12.00;99.90;;;;;;5054369;28;20025;-84
2023/11/15 09:55:29;;;;;;;5.50;0.60;;;12.10;99.90;;;;;;5055916;28;20025;-85
2023/11/15 09:57:55;;;;;;;8.65;1.05;;;12.10;99.90;;;;;;5047941;28;20041;-86
2023/11/15 10:00:22;;;;;;;4.00;0.75;;;12.20;99.90;;;;;;5045229;28;20104;-90
2023/11/15 10:02:50;;;;;;;2.90;0.80;;;12.20;99.90;;;;;;5055728;28;20513;-89
2023/11/15 10:05:22;;;;;;;2.25;0.70;;;12.20;99.90;;;;;;5036179;28;20136;-87
2023/11/15 10:07:51;;;;;;;2.10;0.70;;;12.20;99.90;;;;;;5053872;28;20094;-86
2023/11/15 10:10:21;;;;;;;5.35;0.82;;;12.30;99.90;;;;;;5047485;28;20039;-89
2023/11/15 10:12:51;;;;;;;3.92;1.05;;;12.20;99.90;;;;;;5037612;28;20025;-87
2023/11/15 10:15:39;;;;;;;5.18;0.90;;;12.20;99.90;;;;;;5048565;28;20037;-86
2023/11/15 10:18:09;;;;;;;4.72;0.80;;;12.30;99.90;;;;;;5036715;28;20558;-85
2023/11/15 10:20:35;;;;;;;4.85;1.10;;;12.20;99.90;;;;;;5034770;28;20037;-85
2023/11/15 10:23:01;;;;;;;6.28;0.90;;;12.20;99.90;;;;;;5035343;28;20036;-85
2023/11/15 10:25:27;;;;;;;6.15;1.20;;;12.20;99.90;;;;;;5034900;28;20037;-85
2023/11/15 10:28:07;;;;;;;8.43;1.02;;;12.10;99.90;;;;;;5035647;28;20029;-85
2023/11/15 10:30:34;;;;;;;10.23;1.00;;;12.10;99.90;;;;;;5042701;28;20060;-85
2023/11/15 10:33:10;;;;;;;5.88;0.98;;;12.00;99.90;;;;;;5054390;28;20135;-85
2023/11/15 10:35:44;;;;;;;5.35;1.02;;;12.00;99.90;;;;;;5044933;28;20049;-84
2023/11/15 10:38:18;;;;;;;6.65;1.30;;;11.90;99.90;;;;;;5036301;28;20026;-84
2023/11/15 10:40:46;;;;;;;9.98;1.20;;;12.00;99.90;;;;;;5034921;28;20096;-84
2023/11/15 10:43:15;;;;;;;9.50;2.10;;;12.00;99.90;;;;;;5035292;28;20030;-84
2023/11/15 10:45:43;;;;;;;6.97;1.60;;;12.10;99.90;;;;;;5043867;28;20029;-84
2023/11/15 10:48:15;;;;;;;5.95;1.55;;;12.20;99.90;;;;;;5037928;28;20036;-83
2023/11/15 10:50:45;;;;;;;;;;;12.30;99.90;;;;;;5044689;28;20038;-84
2023/11/15 10:53:11;;;;;;;9.60;1.10;;;12.40;99.90;;;;;;5043442;28;19913;-83
2023/11/15 10:55:40;;;;;;;7.57;1.02;;;12.50;99.90;;;;;;5045091;28;20174;-83
2023/11/15 10:58:08;;;;;;;8.93;1.02;;;12.50;99.90;;;;;;5047636;28;20040;-84
2023/11/15 11:00:35;;;;;;;4.82;0.90;;;12.50;99.90;;;;;;5044046;28;20405;-85
2023/11/15 11:03:05;;;;;;;4.65;1.05;;;12.60;99.90;;;;;;5049305;28;20030;-85
2023/11/15 11:05:52;;;;;;;6.88;1.10;;;12.60;99.90;;;;;;5049457;28;20166;-85
2023/11/15 11:08:34;;;;;;;4.15;1.20;;;12.70;99.90;;;;;;5052785;28;20033;-84
2023/11/15 11:11:09;;;;;;;5.15;0.93;;;12.80;99.90;;;;;;5052762;28;20036;-84
2023/11/15 11:13:36;;;;;;;3.83;0.85;;;12.80;99.90;;;;;;5050973;28;20114;-85
2023/11/15 11:16:29;;;;;;;3.67;0.80;;;12.80;99.90;;;;;;5039553;28;20094;-85
2023/11/15 11:19:21;;;;;;;3.58;0.90;;;12.90;99.90;;;;;;5040255;28;20124;-85
2023/11/15 11:24:35;;;;;;;4.97;0.90;;;12.80;99.90;;;;;;5042585;28;20258;-85
2023/11/15 11:27:16;;;;;;;6.18;0.70;;;12.80;99.90;;;;;;5052693;28;20128;-85
2023/11/15 11:29:50;;;;;;;6.57;0.82;;;12.80;99.90;;;;;;5035718;28;20041;-84
2023/11/15 11:32:32;;;;;;;4.53;1.00;;;12.90;99.90;;;;;;5040345;28;20039;-86
2023/11/15 11:35:00;;;;;;;5.28;0.93;;;12.90;99.90;;;;;;5041478;28;20401;-85
2023/11/15 11:37:44;;;;;;;2.28;0.60;;;12.90;99.90;;;;;;5036595;28;20031;-87
2023/11/15 11:40:23;;;;;;;4.60;0.90;;;12.80;99.90;;;;;;5038790;28;20028;-84
2023/11/15 11:42:52;;;;;;;3.90;0.85;;;12.80;99.90;;;;;;5049239;28;20029;-83
2023/11/15 11:45:23;;;;;;;6.60;1.08;;;12.70;99.90;;;;;;5047918;28;20048;-83
2023/11/15 11:47:49;;;;;;;10.38;0.98;;;12.70;99.90;;;;;;5048731;28;20052;-84
2023/11/15 11:50:22;;;;;;;5.47;0.90;;;12.70;99.90;;;;;;5047117;28;20033;-83
2023/11/15 11:52:56;;;;;;;5.55;0.85;;;12.70;99.90;;;;;;5044000;28;20029;-84
2023/11/15 11:55:22;;;;;;;5.90;0.75;;;12.70;99.90;;;;;;5037791;28;20105;-84
2023/11/15 11:57:49;;;;;;;4.57;0.90;;;12.80;99.90;;;;;;5043951;28;20103;-83
2023/11/15 12:00:15;;;;;;;2.63;0.47;;;12.80;99.90;;;;;;5048795;28;20497;-84
2023/11/15 12:02:43;;;;;;;4.55;0.90;;;12.80;99.90;;;;;;5033251;28;20075;-84
2023/11/15 12:05:10;;;;;;;3.78;0.80;;;12.70;99.90;;;;;;5034145;28;20489;-84
2023/11/15 12:07:47;;;;;;;2.72;0.80;;;12.80;99.90;;;;;;5032696;28;20072;-84
2023/11/15 12:10:14;;;;;;;10.20;0.75;;;12.70;99.90;;;;;;5033316;28;20072;-83
2023/11/15 12:12:41;;;;;;;5.35;0.80;;;12.70;99.90;;;;;;5033715;28;20467;-84
2023/11/15 12:15:15;;;;;;;6.22;0.90;;;12.70;99.90;;;;;;5033747;28;20017;-85
2023/11/15 12:17:45;;;;;;;4.15;0.82;;;12.70;99.90;;;;;;5048345;28;20021;-84
2023/11/15 12:20:12;;;;;;;3.38;0.55;;;12.70;99.90;;;;;;5050470;28;20021;-84
2023/11/15 12:22:43;;;;;;;5.78;0.70;;;12.70;99.90;;;;;;5033264;28;20029;-84
2023/11/15 12:25:16;;;;;;;3.27;0.60;;;12.60;99.90;;;;;;5032850;28;20496;-84
2023/11/15 12:27:42;;;;;;;4.80;1.00;;;12.70;99.90;;;;;;5032277;28;20033;-85
2023/11/15 12:30:09;;;;;;;5.30;0.95;;;12.80;99.90;;;;;;5034059;28;20528;-84
2023/11/15 12:32:41;;;;;;;6.05;0.95;;;12.80;99.90;;;;;;5043516;28;20060;-82
2023/11/15 12:35:11;;;;;;;2.80;0.68;;;12.90;99.90;;;;;;5048161;28;20435;-82
2023/11/15 12:37:37;;;;;;;5.80;1.05;;;13.00;99.90;;;;;;5053654;28;20027;-82
2023/11/15 12:40:19;;;;;;;7.03;0.90;;;13.00;99.90;;;;;;5041395;28;20047;-84
2023/11/15 12:42:45;;;;;;;;;;;13.20;99.90;;;;;;5050383;28;20035;-83
2023/11/15 12:45:34;;;;;;;6.53;0.65;;;13.20;99.90;;;;;;5050496;28;19909;-83
2023/11/15 12:48:04;;;;;;;25.52;8.82;;;13.40;99.90;;;;;;5036905;28;20032;-83
2023/11/15 12:50:31;;;;;;;9.50;3.35;;;13.40;99.90;;;;;;5038231;28;20032;-82
2023/11/15 12:53:05;;;;;;;4.53;1.13;;;13.40;99.90;;;;;;5053737;28;20035;-83